createdAt,value
2019-05-20T00:01:23.708Z,4.33
2019-05-20T00:03:53.655Z,4.05
2019-05-20T00:06:23.631Z,4.17
2019-05-20T00:08:53.441Z,4.00
2019-05-20T00:11:23.281Z,3.87
2019-05-20T00:13:53.066Z,4.40
2019-05-20T00:16:23.099Z,4.47
2019-05-20T00:18:52.617Z,6.07
2019-05-20T00:21:22.322Z,5.30
2019-05-20T00:23:52.426Z,4.97
2019-05-20T00:26:22.460Z,4.67
2019-05-20T00:28:52.558Z,5.12
2019-05-20T00:31:22.412Z,4.53
2019-05-20T00:33:52.283Z,4.83
2019-05-20T00:36:22.217Z,5.13
2019-05-20T00:39:09.567Z,5.17
2019-05-20T00:41:39.566Z,4.80
2019-05-20T00:44:09.553Z,5.00
2019-05-20T00:46:40.028Z,6.23
2019-05-20T00:49:10.864Z,7.07
2019-05-20T00:51:44.053Z,6.90
2019-05-20T00:54:14.258Z,8.50
2019-05-20T00:56:50.255Z,7.03
2019-05-20T00:59:20.322Z,6.53
2019-05-20T01:01:49.991Z,6.27
2019-05-20T01:04:19.945Z,6.50
2019-05-20T01:06:49.793Z,7.40
2019-05-20T01:09:19.708Z,6.50
2019-05-20T01:11:49.213Z,6.67
2019-05-20T01:14:19.187Z,6.10
2019-05-20T01:16:52.870Z,5.70
2019-05-20T01:19:22.666Z,6.30
2019-05-20T01:21:52.364Z,7.03
2019-05-20T01:24:21.929Z,7.03
2019-05-20T01:26:51.741Z,6.57
2019-05-20T01:29:21.349Z,6.90
2019-05-20T01:31:50.853Z,6.80
2019-05-20T01:34:21.110Z,7.13
2019-05-20T01:36:55.016Z,6.97
2019-05-20T01:39:27.883Z,7.70
2019-05-20T01:42:09.826Z,7.43
2019-05-20T01:44:41.671Z,7.47
2019-05-20T01:47:26.512Z,7.37
2019-05-20T01:49:56.964Z,8.83
2019-05-20T01:52:26.746Z,8.13
2019-05-20T01:54:58.768Z,9.53
2019-05-20T01:57:31.709Z,8.27
2019-05-20T02:00:05.644Z,8.40
2019-05-20T02:02:40.638Z,8.50
2019-05-20T02:05:11.981Z,9.13
2019-05-20T02:07:44.149Z,7.87
2019-05-20T02:10:13.888Z,10.43
2019-05-20T02:12:49.750Z,9.13
2019-05-20T02:15:42.261Z,9.50
2019-05-20T02:18:12.177Z,9.13
2019-05-20T02:20:45.272Z,10.13
2019-05-20T02:23:16.205Z,9.43
2019-05-20T02:26:05.198Z,11.03
2019-05-20T02:28:38.485Z,10.23
2019-05-20T02:31:11.787Z,11.30
2019-05-20T02:33:52.319Z,13.53
2019-05-20T02:36:19.087Z,11.20
2019-05-20T02:38:48.880Z,11.60
2019-05-20T02:41:18.752Z,14.90
2019-05-20T02:43:48.356Z,12.20
2019-05-20T02:46:18.241Z,11.90
2019-05-20T02:48:47.958Z,13.40
2019-05-20T02:51:20.053Z,13.73
2019-05-20T02:53:49.620Z,13.13
2019-05-20T02:56:19.532Z,14.90
2019-05-20T02:58:49.099Z,18.43
2019-05-20T03:01:21.865Z,14.93
2019-05-20T03:04:09.457Z,15.23
2019-05-20T03:06:24.821Z,16.60
2019-05-20T03:08:54.430Z,16.50
2019-05-20T03:11:24.144Z,17.50
2019-05-20T03:13:53.892Z,18.07
2019-05-20T03:16:23.562Z,18.10
2019-05-20T03:18:53.332Z,18.20
2019-05-20T03:21:22.983Z,18.77
2019-05-20T03:23:52.523Z,19.93
2019-05-20T03:26:22.662Z,18.53
2019-05-20T03:28:52.319Z,21.43
2019-05-20T03:31:22.694Z,19.63
2019-05-20T03:33:52.636Z,20.00
2019-05-20T03:36:29.096Z,20.20
2019-05-20T03:38:59.526Z,18.97
2019-05-20T03:41:29.715Z,19.63
2019-05-20T03:43:59.418Z,20.20
2019-05-20T03:46:29.408Z,20.10
2019-05-20T03:49:02.778Z,20.03
2019-05-20T03:51:32.438Z,19.77
2019-05-20T03:54:01.788Z,20.67
2019-05-20T03:56:31.023Z,20.97
2019-05-20T03:59:00.243Z,20.70
2019-05-20T04:01:29.477Z,22.57
2019-05-20T04:03:58.639Z,20.73
2019-05-20T04:06:27.911Z,19.80
2019-05-20T04:08:57.494Z,21.87
2019-05-20T04:11:27.143Z,21.23
2019-05-20T04:13:56.598Z,22.03
2019-05-20T04:16:25.807Z,22.30
2019-05-20T04:18:55.318Z,21.03
2019-05-20T04:21:24.510Z,24.83
2019-05-20T04:23:53.743Z,23.07
2019-05-20T04:26:23.183Z,25.63
2019-05-20T04:28:52.930Z,25.63
2019-05-20T04:31:22.145Z,24.70
2019-05-20T04:33:51.619Z,23.53
2019-05-20T04:36:20.802Z,24.13
2019-05-20T04:38:49.999Z,23.73
2019-05-20T04:41:19.303Z,26.10
2019-05-20T04:43:49.021Z,23.20
2019-05-20T04:46:18.374Z,24.00
2019-05-20T04:48:47.810Z,24.77
2019-05-20T04:51:17.055Z,23.77
2019-05-20T04:53:46.592Z,27.43
2019-05-20T04:56:15.802Z,24.47
2019-05-20T04:58:45.105Z,26.43
2019-05-20T05:01:14.265Z,25.63
2019-05-20T05:03:43.541Z,26.80
2019-05-20T05:06:12.734Z,26.77
2019-05-20T05:08:42.045Z,23.47
2019-05-20T05:11:11.311Z,26.00
2019-05-20T05:13:40.554Z,24.47
2019-05-20T05:16:09.939Z,22.90
2019-05-20T05:18:39.278Z,22.53
2019-05-20T05:21:08.775Z,23.93
2019-05-20T05:23:38.281Z,23.87
2019-05-20T05:26:07.528Z,23.30
2019-05-20T05:28:36.934Z,25.17
2019-05-20T05:31:06.522Z,26.83
2019-05-20T05:33:36.055Z,24.67
2019-05-20T05:36:05.331Z,26.83
2019-05-20T05:38:34.540Z,26.13
2019-05-20T05:41:03.891Z,25.90
2019-05-20T05:43:33.148Z,32.17
2019-05-20T05:46:02.460Z,27.63
2019-05-20T05:48:31.638Z,30.03
2019-05-20T05:51:01.205Z,28.17
2019-05-20T05:53:30.442Z,27.20
2019-05-20T05:55:59.685Z,29.33
2019-05-20T05:58:28.911Z,29.87
2019-05-20T06:00:58.483Z,32.90
2019-05-20T06:03:27.868Z,27.37
2019-05-20T06:06:11.702Z,22.23
2019-05-20T06:08:29.152Z,19.80
2019-05-20T06:10:58.677Z,17.87
2019-05-20T06:13:27.990Z,19.05
2019-05-20T06:15:57.218Z,24.60
2019-05-20T06:18:26.498Z,22.70
2019-05-20T06:20:55.794Z,18.92
2019-05-20T06:23:25.066Z,26.25
2019-05-20T06:25:54.233Z,25.57
2019-05-20T06:28:23.416Z,24.17
2019-05-20T06:30:52.934Z,30.17
2019-05-20T06:33:22.090Z,25.20
2019-05-20T06:35:51.374Z,27.45
2019-05-20T06:38:42.228Z,27.03
2019-05-20T06:41:11.475Z,26.77
2019-05-20T06:43:40.934Z,31.70
2019-05-20T06:46:10.275Z,28.53
2019-05-20T06:48:39.504Z,28.00
2019-05-20T06:51:08.838Z,32.70
2019-05-20T06:53:38.111Z,29.87
2019-05-20T06:56:07.434Z,28.83
2019-05-20T06:58:36.780Z,28.98
2019-05-20T07:01:06.085Z,31.27
2019-05-20T07:03:35.547Z,30.72
2019-05-20T07:06:04.874Z,32.45
2019-05-20T07:08:34.164Z,33.07
2019-05-20T07:11:03.502Z,30.57
2019-05-20T07:13:32.698Z,29.85
2019-05-20T07:16:01.988Z,31.07
2019-05-20T07:18:31.464Z,35.20
2019-05-20T07:21:00.917Z,30.43
2019-05-20T07:23:30.094Z,33.97
2019-05-20T07:25:59.443Z,35.92
2019-05-20T07:28:28.695Z,31.10
2019-05-20T07:30:57.930Z,34.05
2019-05-20T07:33:27.138Z,35.35
2019-05-20T07:35:56.590Z,34.58
2019-05-20T07:38:26.113Z,34.33
2019-05-20T07:40:55.411Z,33.15
2019-05-20T07:43:24.706Z,31.97
2019-05-20T07:45:54.298Z,32.83
2019-05-20T07:48:23.990Z,32.93
2019-05-20T07:50:53.721Z,33.42
2019-05-20T07:53:23.613Z,36.60
2019-05-20T07:55:59.783Z,33.00
2019-05-20T07:58:33.723Z,34.67
2019-05-20T08:01:02.801Z,35.00
2019-05-20T08:03:32.428Z,33.97
2019-05-20T08:06:01.662Z,39.80
2019-05-20T08:08:31.009Z,34.70
2019-05-20T08:11:00.287Z,34.98
2019-05-20T08:13:29.489Z,35.97
2019-05-20T08:15:58.814Z,37.88
2019-05-20T08:18:28.383Z,38.33
2019-05-20T08:20:58.154Z,35.20
2019-05-20T08:23:27.541Z,34.73
2019-05-20T08:25:57.034Z,36.73
2019-05-20T08:28:26.216Z,32.53
2019-05-20T08:30:55.605Z,36.10
2019-05-20T08:33:25.107Z,34.13
2019-05-20T08:35:54.610Z,37.05
2019-05-20T08:38:23.890Z,37.70
2019-05-20T08:40:53.152Z,36.38
2019-05-20T08:43:22.488Z,32.63
2019-05-20T08:45:51.838Z,34.48
2019-05-20T08:48:21.350Z,32.93
2019-05-20T08:50:50.592Z,35.85
2019-05-20T08:53:19.909Z,31.05
2019-05-20T08:55:49.870Z,34.43
2019-05-20T08:58:19.546Z,33.45
2019-05-20T09:00:48.843Z,33.53
2019-05-20T09:03:18.099Z,33.05
2019-05-20T09:05:47.727Z,31.93
2019-05-20T09:08:16.979Z,35.15
2019-05-20T09:10:46.203Z,33.88
2019-05-20T09:13:15.572Z,36.45
2019-05-20T09:15:45.549Z,31.65
2019-05-20T09:18:14.971Z,34.98
2019-05-20T09:20:44.693Z,33.75
2019-05-20T09:23:13.991Z,34.75
2019-05-20T09:25:43.558Z,33.55
2019-05-20T09:28:13.144Z,35.55
2019-05-20T09:30:42.611Z,30.68
2019-05-20T09:33:11.942Z,34.60
2019-05-20T09:35:41.362Z,34.48
2019-05-20T09:38:20.074Z,37.75
2019-05-20T09:40:44.483Z,33.80
2019-05-20T09:43:13.867Z,35.88
2019-05-20T09:45:43.032Z,34.10
2019-05-20T09:48:13.165Z,32.63
2019-05-20T09:50:42.737Z,37.98
2019-05-20T09:53:12.341Z,35.70
2019-05-20T09:55:41.622Z,35.88
2019-05-20T09:58:10.962Z,32.25
2019-05-20T10:00:40.426Z,35.68
2019-05-20T10:03:09.704Z,33.90
2019-05-20T10:05:38.886Z,37.78
2019-05-20T10:08:08.122Z,33.50
2019-05-20T10:10:37.887Z,32.95
2019-05-20T10:13:07.872Z,31.48
2019-05-20T10:15:37.734Z,29.12
2019-05-20T10:18:07.343Z,35.58
2019-05-20T10:20:36.725Z,33.65
2019-05-20T10:23:06.275Z,37.08
2019-05-20T10:25:35.688Z,33.83
2019-05-20T10:28:04.936Z,32.63
2019-05-20T10:30:34.306Z,30.70
2019-05-20T10:33:03.584Z,32.13
2019-05-20T10:35:32.846Z,34.92
2019-05-20T10:38:02.031Z,32.60
2019-05-20T10:40:31.252Z,28.80
2019-05-20T10:43:00.502Z,26.30
2019-05-20T10:45:29.902Z,31.87
2019-05-20T10:47:59.240Z,28.87
2019-05-20T10:50:28.584Z,32.33
2019-05-20T10:52:57.783Z,33.58
2019-05-20T10:55:27.150Z,30.77
2019-05-20T10:57:56.706Z,33.60
2019-05-20T11:00:26.314Z,28.20
2019-05-20T11:02:55.563Z,29.92
2019-05-20T11:05:24.910Z,29.40
2019-05-20T11:07:54.209Z,34.25
2019-05-20T11:10:23.531Z,31.10
2019-05-20T11:12:52.795Z,34.63
2019-05-20T11:15:22.076Z,30.60
2019-05-20T11:17:51.328Z,31.17
2019-05-20T11:20:20.830Z,29.37
2019-05-20T11:22:50.357Z,30.77
2019-05-20T11:25:19.783Z,29.80
2019-05-20T11:27:48.969Z,30.75
2019-05-20T11:30:19.581Z,36.23
2019-05-20T11:32:48.926Z,30.20
2019-05-20T11:35:18.375Z,33.38
2019-05-20T11:37:47.642Z,29.40
2019-05-20T11:40:17.250Z,29.90
2019-05-20T11:42:46.525Z,28.53
2019-05-20T11:45:17.726Z,25.73
2019-05-20T11:47:46.941Z,27.13
2019-05-20T11:50:16.477Z,29.92
2019-05-20T11:52:46.242Z,26.30
2019-05-20T11:55:15.799Z,25.90
2019-05-20T11:57:45.145Z,26.40
2019-05-20T12:00:15.058Z,26.53
2019-05-20T12:02:44.501Z,28.77
2019-05-20T12:05:14.516Z,23.55
2019-05-20T12:07:44.143Z,25.17
2019-05-20T12:10:13.449Z,27.48
2019-05-20T12:12:45.922Z,23.10
2019-05-20T12:15:14.531Z,25.15
2019-05-20T12:17:44.121Z,24.97
2019-05-20T12:20:13.643Z,21.90
2019-05-20T12:22:42.890Z,21.33
2019-05-20T12:25:12.377Z,21.57
2019-05-20T12:27:41.694Z,19.27
2019-05-20T12:30:11.248Z,19.85
2019-05-20T12:32:40.526Z,20.50
2019-05-20T12:35:10.333Z,25.37
2019-05-20T12:37:39.836Z,21.62
2019-05-20T12:40:10.070Z,22.45
2019-05-20T12:42:39.259Z,24.57
2019-05-20T12:45:08.991Z,22.10
2019-05-20T12:47:38.294Z,23.57
2019-05-20T12:50:08.258Z,34.30
2019-05-20T12:52:42.786Z,24.55
2019-05-20T12:55:12.081Z,21.53
2019-05-20T12:57:41.726Z,24.65
2019-05-20T13:00:12.203Z,23.92
2019-05-20T13:02:41.718Z,22.85
2019-05-20T13:05:11.320Z,22.27
2019-05-20T13:07:40.676Z,22.53
2019-05-20T13:10:26.812Z,23.20
2019-05-20T13:12:41.696Z,20.60
2019-05-20T13:15:11.766Z,22.30
2019-05-20T13:17:44.784Z,20.37
2019-05-20T13:20:12.393Z,21.42
2019-05-20T13:22:42.056Z,23.93
2019-05-20T13:25:11.991Z,22.50
2019-05-20T13:27:41.246Z,24.47
2019-05-20T13:30:11.461Z,23.30
2019-05-20T13:32:40.819Z,20.90
2019-05-20T13:35:10.562Z,18.30
2019-05-20T13:37:40.263Z,20.70
2019-05-20T13:40:09.711Z,20.90
2019-05-20T13:42:38.955Z,22.10
2019-05-20T13:45:10.472Z,22.75
2019-05-20T13:47:40.621Z,21.07
2019-05-20T13:50:10.436Z,20.13
2019-05-20T13:52:39.994Z,23.67
2019-05-20T13:55:09.873Z,21.70
2019-05-20T13:57:39.674Z,20.45
2019-05-20T14:00:09.748Z,24.55
2019-05-20T14:02:39.149Z,22.50
2019-05-20T14:05:08.643Z,21.90
2019-05-20T14:07:38.044Z,21.42
2019-05-20T14:10:08.644Z,23.20
2019-05-20T14:12:38.225Z,24.45
2019-05-20T14:15:07.794Z,21.57
2019-05-20T14:17:37.064Z,24.63
2019-05-20T14:20:06.749Z,22.20
2019-05-20T14:22:36.028Z,24.20
2019-05-20T14:25:05.847Z,25.02
2019-05-20T14:27:35.485Z,27.55
2019-05-20T14:30:05.721Z,29.17
2019-05-20T14:32:35.031Z,28.80
2019-05-20T14:35:04.594Z,28.53
2019-05-20T14:37:34.226Z,28.47
2019-05-20T14:40:03.643Z,29.77
2019-05-20T14:42:32.834Z,30.73
2019-05-20T14:45:02.072Z,30.10
2019-05-20T14:47:31.329Z,32.80
2019-05-20T14:50:01.190Z,34.60
2019-05-20T14:52:30.918Z,32.77
2019-05-20T14:55:00.098Z,31.00
2019-05-20T14:57:29.461Z,34.33
2019-05-20T14:59:58.778Z,36.23
2019-05-20T15:02:30.950Z,39.17
2019-05-20T15:04:59.014Z,42.60
2019-05-20T15:07:30.970Z,42.37
2019-05-20T15:09:59.410Z,42.20
2019-05-20T15:12:28.627Z,41.10
2019-05-20T15:14:57.890Z,43.23
2019-05-20T15:17:27.174Z,47.00
2019-05-20T15:19:56.647Z,43.00
2019-05-20T15:22:26.019Z,68.53
2019-05-20T15:24:55.294Z,42.60
2019-05-20T15:27:24.496Z,57.60
2019-05-20T15:29:53.805Z,43.73
2019-05-20T15:32:23.277Z,42.70
2019-05-20T15:34:52.591Z,43.77
2019-05-20T15:37:21.765Z,39.93
2019-05-20T15:39:51.226Z,37.97
2019-05-20T15:42:20.511Z,34.70
2019-05-20T15:44:50.105Z,39.03
2019-05-20T15:47:19.732Z,41.90
2019-05-20T15:49:49.268Z,38.60
2019-05-20T15:52:18.557Z,37.83
2019-05-20T15:54:48.167Z,43.80
2019-05-20T15:57:17.525Z,39.60
2019-05-20T15:59:46.942Z,38.57
2019-05-20T16:02:16.684Z,39.03
2019-05-20T16:04:47.151Z,40.00
2019-05-20T16:07:18.094Z,35.70
2019-05-20T16:09:47.407Z,36.13
2019-05-20T16:12:16.839Z,39.33
2019-05-20T16:14:51.429Z,38.60
2019-05-20T16:17:20.240Z,36.93
2019-05-20T16:19:49.619Z,42.43
2019-05-20T16:22:18.846Z,35.83
2019-05-20T16:24:48.138Z,40.40
2019-05-20T16:27:17.554Z,37.80
2019-05-20T16:30:04.710Z,40.47
2019-05-20T16:32:18.028Z,40.27
2019-05-20T16:34:47.350Z,41.03
2019-05-20T16:37:16.610Z,39.93
2019-05-20T16:39:46.314Z,42.03
2019-05-20T16:42:15.927Z,37.53
2019-05-20T16:44:45.374Z,41.50
2019-05-20T16:47:14.697Z,42.27
2019-05-20T16:49:44.155Z,40.43
2019-05-20T16:52:13.546Z,40.33
2019-05-20T16:54:42.937Z,38.90
2019-05-20T16:57:12.292Z,43.20
2019-05-20T16:59:41.667Z,42.47
2019-05-20T17:02:11.347Z,42.87
2019-05-20T17:04:40.812Z,41.67
2019-05-20T17:07:10.069Z,42.27
2019-05-20T17:09:39.876Z,40.63
2019-05-20T17:12:09.271Z,38.60
2019-05-20T17:14:38.838Z,39.23
2019-05-20T17:17:08.123Z,44.17
2019-05-20T17:19:37.560Z,39.23
2019-05-20T17:22:06.995Z,42.60
2019-05-20T17:24:36.382Z,38.70
2019-05-20T17:27:05.832Z,43.07
2019-05-20T17:29:35.189Z,43.13
2019-05-20T17:32:04.696Z,43.37
2019-05-20T17:34:34.198Z,40.40
2019-05-20T17:37:03.843Z,39.60
2019-05-20T17:39:33.304Z,40.90
2019-05-20T17:42:02.712Z,37.77
2019-05-20T17:44:32.822Z,41.80
2019-05-20T17:47:02.317Z,45.93
2019-05-20T17:49:34.592Z,39.33
2019-05-20T17:52:03.929Z,41.07
2019-05-20T17:54:33.537Z,41.77
2019-05-20T17:57:03.117Z,40.17
2019-05-20T17:59:32.755Z,43.07
2019-05-20T18:02:02.329Z,44.07
2019-05-20T18:04:31.848Z,41.43
2019-05-20T18:07:02.964Z,41.93
2019-05-20T18:09:34.074Z,43.27
2019-05-20T18:12:03.466Z,43.33
2019-05-20T18:14:32.711Z,37.93
2019-05-20T18:17:03.235Z,41.17
2019-05-20T18:19:32.789Z,41.73
2019-05-20T18:22:02.710Z,42.00
2019-05-20T18:24:31.966Z,43.57
2019-05-20T18:27:02.030Z,42.03
2019-05-20T18:29:31.342Z,40.67
2019-05-20T18:32:01.167Z,42.87
2019-05-20T18:34:30.438Z,42.30
2019-05-20T18:36:59.895Z,40.53
2019-05-20T18:39:29.222Z,42.13
2019-05-20T18:41:58.438Z,38.67
2019-05-20T18:44:30.939Z,42.07
2019-05-20T18:47:00.372Z,46.67
2019-05-20T18:49:30.188Z,50.30
2019-05-20T18:51:59.815Z,49.10
2019-05-20T18:54:29.236Z,46.90
2019-05-20T18:56:58.725Z,52.23
2019-05-20T18:59:28.367Z,44.40
2019-05-20T19:02:05.234Z,45.20
2019-05-20T19:04:29.163Z,43.83
2019-05-20T19:06:58.540Z,43.83
2019-05-20T19:09:28.177Z,37.70
2019-05-20T19:11:57.549Z,40.63
2019-05-20T19:14:27.254Z,48.33
2019-05-20T19:16:56.867Z,44.10
2019-05-20T19:19:26.472Z,48.87
2019-05-20T19:21:55.827Z,40.87
2019-05-20T19:24:25.058Z,46.03
2019-05-20T19:26:54.790Z,49.90
2019-05-20T19:29:24.328Z,47.63
2019-05-20T19:32:01.404Z,53.37
2019-05-20T19:34:25.521Z,49.87
2019-05-20T19:36:54.915Z,47.27
2019-05-20T19:39:24.322Z,49.60
2019-05-20T19:41:53.822Z,52.97
2019-05-20T19:44:23.457Z,47.37
2019-05-20T19:46:53.277Z,46.30
2019-05-20T19:49:22.635Z,48.03
2019-05-20T19:51:52.503Z,51.43
2019-05-20T19:54:22.205Z,56.13
2019-05-20T19:56:51.742Z,61.73
2019-05-20T19:59:21.080Z,59.50
2019-05-20T20:01:50.723Z,58.17
2019-05-20T20:04:20.503Z,55.60
2019-05-20T20:06:49.759Z,50.23
2019-05-20T20:09:19.140Z,60.80
2019-05-20T20:11:48.476Z,48.33
2019-05-20T20:14:17.992Z,49.47
2019-05-20T20:16:47.377Z,46.57
2019-05-20T20:19:17.170Z,45.20
2019-05-20T20:21:46.976Z,49.13
2019-05-20T20:24:16.460Z,43.13
2019-05-20T20:26:46.356Z,44.47
2019-05-20T20:29:15.735Z,48.77
2019-05-20T20:31:46.024Z,49.80
2019-05-20T20:34:15.646Z,50.93
2019-05-20T20:36:45.483Z,47.10
2019-05-20T20:39:14.803Z,52.13
2019-05-20T20:41:44.199Z,42.97
2019-05-20T20:44:13.461Z,44.33
2019-05-20T20:46:43.002Z,52.30
2019-05-20T20:49:14.759Z,50.63
2019-05-20T20:51:43.658Z,57.17
2019-05-20T20:54:13.004Z,51.97
2019-05-20T20:56:42.606Z,53.13
2019-05-20T20:59:11.871Z,55.37
2019-05-20T21:01:41.469Z,54.73
2019-05-20T21:04:10.926Z,61.10
2019-05-20T21:06:40.664Z,47.60
2019-05-20T21:09:10.038Z,50.40
2019-05-20T21:11:39.525Z,56.57
2019-05-20T21:14:08.887Z,50.07
2019-05-20T21:16:38.308Z,53.57
2019-05-20T21:19:07.694Z,58.87
2019-05-20T21:21:37.013Z,63.60
2019-05-20T21:24:06.269Z,56.30
2019-05-20T21:26:35.673Z,59.90
2019-05-20T21:29:05.084Z,58.63
2019-05-20T21:31:34.826Z,59.23
2019-05-20T21:34:04.443Z,57.47
2019-05-20T21:36:46.549Z,59.40
2019-05-20T21:39:05.672Z,56.07
2019-05-20T21:41:35.043Z,56.63
2019-05-20T21:44:04.410Z,61.17
2019-05-20T21:46:33.947Z,62.10
2019-05-20T21:49:03.360Z,59.47
2019-05-20T21:51:32.787Z,61.47
2019-05-20T21:54:02.219Z,56.77
2019-05-20T21:56:31.543Z,62.17
2019-05-20T21:59:00.824Z,62.40
2019-05-20T22:01:30.154Z,61.47
2019-05-20T22:03:59.746Z,59.90
2019-05-20T22:06:29.045Z,67.13
2019-05-20T22:08:58.328Z,64.60
2019-05-20T22:11:27.665Z,66.40
2019-05-20T22:13:56.999Z,68.73
2019-05-20T22:16:29.671Z,64.60
2019-05-20T22:18:57.575Z,61.97
2019-05-20T22:21:30.877Z,69.37
2019-05-20T22:24:02.583Z,67.70
2019-05-20T22:26:31.844Z,64.30
2019-05-20T22:29:01.041Z,61.53
2019-05-20T22:31:30.345Z,57.07
2019-05-20T22:33:59.760Z,65.23
2019-05-20T22:36:28.936Z,58.40
2019-05-20T22:38:58.203Z,58.73
2019-05-20T22:41:27.455Z,57.23
2019-05-20T22:43:56.679Z,59.73
2019-05-20T22:46:25.901Z,57.27
2019-05-20T22:48:55.170Z,55.60
2019-05-20T22:51:24.393Z,57.00
2019-05-20T22:53:53.580Z,52.33
2019-05-20T22:56:22.820Z,52.13
2019-05-20T22:58:52.174Z,53.63
2019-05-20T23:01:21.411Z,50.60
2019-05-20T23:03:56.422Z,52.77
2019-05-20T23:06:21.679Z,52.47
2019-05-20T23:08:50.900Z,53.60
2019-05-20T23:11:20.091Z,58.37
2019-05-20T23:13:49.358Z,54.30
2019-05-20T23:16:18.774Z,56.87
2019-05-20T23:18:48.052Z,53.30
2019-05-20T23:21:17.217Z,50.50
2019-05-20T23:23:46.507Z,56.07
2019-05-20T23:26:15.769Z,53.17
2019-05-20T23:28:45.650Z,50.80
2019-05-20T23:31:14.808Z,49.00
2019-05-20T23:33:44.062Z,53.73
2019-05-20T23:36:13.417Z,52.77
2019-05-20T23:38:42.771Z,49.27
2019-05-20T23:41:12.017Z,54.30
2019-05-20T23:43:41.560Z,50.03
2019-05-20T23:46:10.846Z,47.40
2019-05-20T23:48:40.185Z,49.93
2019-05-20T23:51:09.357Z,48.20
2019-05-20T23:53:38.545Z,49.87
2019-05-20T23:56:07.725Z,45.30
2019-05-20T23:58:37.209Z,48.10
